Ann Elise — WDG5175 — position and weather

sailwx.info

Track history (hours):
 
Tides and Currents Weather Stations Pressure Air Temp Water Temp Dewpoint Dewpoint Depression Visibility Wind Speed Wind Dir Waves Ship Positions

Ann Elise

Owner: Magnolia Marine Transport Company, Vicksburg, MS. More information available from US FCC via Universal Licensing System and Coast Guard Vessel Documentation Center.

Last reported at 2017-Sep-13 21:15 UTC. Time now 2017-Sep-19 20:33 UTC.
Position N 38°57' W 090°32'.

Length 32 m; draft 3.1 m.

Type: Towing. MMSI: 367544060.

Date/timePositionNaut miles runAvg speedWind from/ knotsBaromVisibWave heightAir tempDewpointWater temp
2017-Sep-13 21:15N 38°57' W 090°32'1 4.8
2017-Sep-13 21:01N 38°57' W 090°31'3 5.1
2017-Sep-13 20:31N 38°58' W 090°27'3 5.4
2017-Sep-13 20:01N 38°58' W 090°24'3 6.4
2017-Sep-13 19:31N 38°56' W 090°20'  
2017-Sep-08 04:27N 32°45' W 091°09'8 2.6
2017-Sep-08 01:16N 32°37' W 091°09'2 5.7
2017-Sep-08 01:00N 32°36' W 091°08'5 5.0
2017-Sep-07 23:55N 32°30' W 091°07'2 5.6
2017-Sep-07 23:30N 32°28' W 091°06'3 6.0
2017-Sep-07 23:01N 32°26' W 091°03'3 5.9
2017-Sep-07 22:31N 32°25' W 090°60'2 4.9
2017-Sep-07 22:01N 32°23' W 091°00'2 4.4
2017-Sep-07 21:31N 32°21' W 090°58'1 1.9
2017-Sep-07 21:01N 32°21' W 090°57'2 4.9
2017-Sep-07 20:31N 32°20' W 090°54'1 1.2
2017-Sep-07 20:01N 32°20' W 090°54'0 0.0
2017-Sep-07 19:31N 32°20' W 090°54'0 0.0
2017-Sep-07 19:01N 32°20' W 090°54'0 0.0
2017-Sep-07 18:31N 32°20' W 090°54'0 0.1
2017-Sep-07 18:01N 32°20' W 090°54'0 0.0
2017-Sep-07 17:31N 32°20' W 090°54'0 0.0
2017-Sep-07 17:00N 32°20' W 090°54'0 0.0
2017-Sep-07 16:31N 32°20' W 090°54'0 0.0
2017-Sep-07 16:01N 32°20' W 090°54'0 0.0
2017-Sep-07 15:31N 32°20' W 090°54'0 0.8
2017-Sep-07 15:01N 32°21' W 090°53'2 4.1
2017-Sep-07 14:31N 32°23' W 090°53'0 0.6
2017-Sep-07 14:01N 32°23' W 090°53'0 0.0
2017-Sep-07 13:31N 32°23' W 090°53'0 0.0
2017-Sep-07 13:01N 32°23' W 090°53'0 0.2
2017-Sep-07 12:31N 32°23' W 090°53'0 0.1
2017-Sep-07 12:01N 32°23' W 090°53'0 0.0
2017-Sep-07 11:30N 32°23' W 090°53'0 0.9
2017-Sep-07 11:00N 32°23' W 090°52'2 3.6
2017-Sep-07 10:31N 32°21' W 090°53'2 5.0
2017-Sep-07 10:01N 32°19' W 090°54'2 3.0
2017-Sep-07 09:31N 32°18' W 090°56'0 0.6
2017-Sep-07 09:00N 32°17' W 090°56'3 5.3
2017-Sep-07 08:31N 32°16' W 090°58'3 5.1
2017-Sep-07 08:00N 32°13' W 090°59'3 5.7
2017-Sep-07 07:30N 32°10' W 091°00'3 5.3
2017-Sep-07 07:00N 32°08' W 091°01'4 5.6
2017-Sep-07 06:20N 32°08' W 091°05'2 4.6
2017-Sep-07 06:00N 32°07' W 091°06'4 2.1
2017-Sep-07 04:04N 32°04' W 091°03'0 5.9
2017-Sep-07 04:00N 32°03' W 091°03'8 5.7
2017-Sep-07 02:39N 31°59' W 091°11'1 6.1
2017-Sep-07 02:30N 31°58' W 091°11'  
2017-Sep-03 23:29N 32°00' W 091°05'610.4
2017-Sep-03 22:54N 32°06' W 091°06'3 7.1
2017-Sep-03 22:24N 32°07' W 091°02'410.2
2017-Sep-03 22:00N 32°11' W 090°60'611.1
2017-Sep-03 21:30N 32°16' W 090°58'  
Track history (hours):
 
Tides and Currents Weather Stations Pressure Air Temp Water Temp Dewpoint Dewpoint Depression Visibility Wind Speed Wind Dir Waves Ship Positions

Ann Elise

Owner: Magnolia Marine Transport Company, Vicksburg, MS. More information available from US FCC via Universal Licensing System and Coast Guard Vessel Documentation Center.

Last reported at 2017-Sep-13 21:15 UTC. Time now 2017-Sep-19 20:33 UTC.
Position N 38°57' W 090°32'.

Length 32 m; draft 3.1 m.

Type: Towing. MMSI: 367544060.

Date/timePositionNaut miles runAvg speedWind from/ knotsBaromVisibWave heightAir tempDewpointWater temp
2017-Sep-13 21:15N 38°57' W 090°32'1 4.8
2017-Sep-13 21:01N 38°57' W 090°31'3 5.1
2017-Sep-13 20:31N 38°58' W 090°27'3 5.4
2017-Sep-13 20:01N 38°58' W 090°24'3 6.4
2017-Sep-13 19:31N 38°56' W 090°20'  
2017-Sep-08 04:27N 32°45' W 091°09'8 2.6
2017-Sep-08 01:16N 32°37' W 091°09'2 5.7
2017-Sep-08 01:00N 32°36' W 091°08'5 5.0
2017-Sep-07 23:55N 32°30' W 091°07'2 5.6
2017-Sep-07 23:30N 32°28' W 091°06'3 6.0
2017-Sep-07 23:01N 32°26' W 091°03'3 5.9
2017-Sep-07 22:31N 32°25' W 090°60'2 4.9
2017-Sep-07 22:01N 32°23' W 091°00'2 4.4
2017-Sep-07 21:31N 32°21' W 090°58'1 1.9
2017-Sep-07 21:01N 32°21' W 090°57'2 4.9
2017-Sep-07 20:31N 32°20' W 090°54'1 1.2
2017-Sep-07 20:01N 32°20' W 090°54'0 0.0
2017-Sep-07 19:31N 32°20' W 090°54'0 0.0
2017-Sep-07 19:01N 32°20' W 090°54'0 0.0
2017-Sep-07 18:31N 32°20' W 090°54'0 0.1
2017-Sep-07 18:01N 32°20' W 090°54'0 0.0
2017-Sep-07 17:31N 32°20' W 090°54'0 0.0
2017-Sep-07 17:00N 32°20' W 090°54'0 0.0
2017-Sep-07 16:31N 32°20' W 090°54'0 0.0
2017-Sep-07 16:01N 32°20' W 090°54'0 0.0
2017-Sep-07 15:31N 32°20' W 090°54'0 0.8
2017-Sep-07 15:01N 32°21' W 090°53'2 4.1
2017-Sep-07 14:31N 32°23' W 090°53'0 0.6
2017-Sep-07 14:01N 32°23' W 090°53'0 0.0
2017-Sep-07 13:31N 32°23' W 090°53'0 0.0
2017-Sep-07 13:01N 32°23' W 090°53'0 0.2
2017-Sep-07 12:31N 32°23' W 090°53'0 0.1
2017-Sep-07 12:01N 32°23' W 090°53'0 0.0
2017-Sep-07 11:30N 32°23' W 090°53'0 0.9
2017-Sep-07 11:00N 32°23' W 090°52'2 3.6
2017-Sep-07 10:31N 32°21' W 090°53'2 5.0
2017-Sep-07 10:01N 32°19' W 090°54'2 3.0
2017-Sep-07 09:31N 32°18' W 090°56'0 0.6
2017-Sep-07 09:00N 32°17' W 090°56'3 5.3
2017-Sep-07 08:31N 32°16' W 090°58'3 5.1
2017-Sep-07 08:00N 32°13' W 090°59'3 5.7
2017-Sep-07 07:30N 32°10' W 091°00'3 5.3
2017-Sep-07 07:00N 32°08' W 091°01'4 5.6
2017-Sep-07 06:20N 32°08' W 091°05'2 4.6
2017-Sep-07 06:00N 32°07' W 091°06'4 2.1
2017-Sep-07 04:04N 32°04' W 091°03'0 5.9
2017-Sep-07 04:00N 32°03' W 091°03'8 5.7
2017-Sep-07 02:39N 31°59' W 091°11'1 6.1
2017-Sep-07 02:30N 31°58' W 091°11'  
2017-Sep-03 23:29N 32°00' W 091°05'610.4
2017-Sep-03 22:54N 32°06' W 091°06'3 7.1
2017-Sep-03 22:24N 32°07' W 091°02'410.2
2017-Sep-03 22:00N 32°11' W 090°60'611.1
2017-Sep-03 21:30N 32°16' W 090°58'  

Dump ship's entire track history